Time;durP1;ratioP1;P1;durP2;ratioP2;P2;SDS_P1;SDS_P2;PMS_P1;PMS_P2;Temp;Humidity;BMP_temperature;BMP_pressure;BME280_temperature;BME280_humidity;BME280_pressure;Samples;Min_cycle;Max_cycle;Signal;HPM_P1;HPM_P2
2022/06/03 00:00:25;;;;;;;21.43;12.67;;;;;;;17.14;92.32;100617.95;1762069;81;21086;-58
2022/06/03 00:03:30;;;;;;;14.65;11.43;;;;;;;17.14;92.32;100617.95;1761721;81;21767;-60
2022/06/03 00:06:24;;;;;;;17.67;11.95;;;;;;;17.07;92.76;100612.52;1761136;81;21500;-59
2022/06/03 00:09:19;;;;;;;15.48;11.53;;;;;;;17.04;92.83;100619.06;1761667;81;21023;-60
2022/06/03 00:12:30;;;;;;;18.15;11.25;;;;;;;16.99;92.99;100613.39;1761706;81;21022;-59
2022/06/03 00:15:26;;;;;;;14.35;10.40;;;;;;;16.94;92.86;100619.63;1761372;81;21055;-59
2022/06/03 00:18:31;;;;;;;14.93;10.70;;;;;;;16.88;92.65;100627.99;1761926;81;21069;-59
2022/06/03 00:21:08;;;;;;;17.15;10.93;;;;;;;16.84;92.38;100630.92;1761598;81;21020;-60
2022/06/03 00:24:02;;;;;;;13.05;9.93;;;;;;;16.80;92.41;100633.31;1736549;81;21105;-58
2022/06/03 00:27:02;;;;;;;15.08;10.50;;;;;;;16.79;92.55;100639.38;1730185;83;21085;-59
2022/06/03 00:30:05;;;;;;;14.93;10.55;;;;;;;16.78;92.42;100649.30;1761402;81;21450;-59
2022/06/03 00:32:55;;;;;;;14.40;10.63;;;;;;;16.74;92.50;100648.92;1761484;81;21010;-59
2022/06/03 00:35:47;;;;;;;13.88;10.20;;;;;;;16.74;92.74;100654.45;1761648;81;21030;-59
2022/06/03 00:39:01;;;;;;;13.10;10.28;;;;;;;16.75;92.67;100650.61;1749786;81;21112;-58
2022/06/03 00:41:51;;;;;;;17.15;10.50;;;;;;;16.74;92.65;100654.99;1747140;81;21022;-59
2022/06/03 00:44:31;;;;;;;12.25;9.75;;;;;;;16.73;92.13;100653.30;1746713;81;21063;-59
2022/06/03 00:47:34;;;;;;;14.78;9.90;;;;;;;16.72;92.16;100656.61;1746522;82;21014;-59
2022/06/03 00:50:15;;;;;;;11.60;9.53;;;;;;;16.72;92.12;100661.30;1746889;82;21018;-59
2022/06/03 00:53:06;;;;;;;14.28;9.43;;;;;;;16.71;92.07;100666.53;1746565;82;21042;-60
2022/06/03 00:56:24;;;;;;;14.73;9.90;;;;;;;16.70;92.15;100668.45;1746804;82;21025;-59
2022/06/03 00:59:00;;;;;;;14.95;10.63;;;;;;;16.71;92.12;100672.91;1746561;82;21035;-58
2022/06/03 01:01:41;;;;;;;17.75;12.00;;;;;;;16.70;92.05;100671.22;1746118;82;21556;-59
2022/06/03 01:04:33;;;;;;;14.05;10.58;;;;;;;16.69;91.61;100674.22;1745368;81;21041;-60
2022/06/03 01:07:20;;;;;;;13.68;10.35;;;;;;;16.67;91.86;100682.75;1746732;81;20978;-59
2022/06/03 01:10:22;;;;;;;11.20;10.00;;;;;;;16.65;92.00;100674.34;1747091;81;21036;-58
2022/06/03 01:13:21;;;;;;;13.68;11.03;;;;;;;16.64;92.03;100685.09;1746844;82;21018;-59
2022/06/03 01:16:10;;;;;;;14.30;10.60;;;;;;;16.65;92.04;100693.70;1746673;82;21474;-59
2022/06/03 01:19:13;;;;;;;16.67;11.78;;;;;;;16.61;91.31;100694.70;1731998;82;21081;-58
2022/06/03 01:22:07;;;;;;;16.07;11.57;;;;;;;16.56;90.77;100705.62;1746590;82;21005;-59
2022/06/03 01:25:22;;;;;;;14.33;10.63;;;;;;;16.50;90.35;100706.53;1746649;82;20998;-59
2022/06/03 01:28:32;;;;;;;12.78;11.10;;;;;;;16.46;90.60;100703.91;1746858;81;21005;-59
2022/06/03 01:31:46;;;;;;;16.55;12.23;;;;;;;16.42;90.51;100700.77;1746920;82;20986;-59
2022/06/03 01:34:39;;;;;;;14.18;12.15;;;;;;;16.45;90.84;100703.07;1746876;81;21030;-59
2022/06/03 01:37:24;;;;;;;13.90;11.10;;;;;;;16.49;90.72;100714.52;1748623;81;20998;-59
2022/06/03 01:40:23;;;;;;;15.10;11.80;;;;;;;16.45;90.09;100721.59;1758870;81;21082;-58
2022/06/03 01:43:10;;;;;;;13.95;11.68;;;;;;;16.45;90.34;100721.05;1759084;81;21058;-58
2022/06/03 01:46:02;;;;;;;13.35;10.60;;;;;;;16.48;90.38;100722.52;1758927;81;21023;-58
2022/06/03 01:49:11;;;;;;;14.70;10.80;;;;;;;16.47;90.03;100730.50;1758684;81;21078;-60
2022/06/03 01:52:06;;;;;;;11.25;9.83;;;;;;;16.47;89.75;100738.80;1758825;81;21468;-59
2022/06/03 01:55:17;;;;;;;11.57;9.55;;;;;;;16.48;89.96;100753.79;1720029;83;21260;-59
2022/06/03 01:58:13;;;;;;;10.50;8.70;;;;;;;16.48;89.85;100759.32;1756154;81;21932;-59
2022/06/03 02:01:10;;;;;;;10.90;8.83;;;;;;;16.47;88.84;100762.31;1756218;81;21053;-59
2022/06/03 02:04:15;;;;;;;16.30;9.30;;;;;;;16.37;88.85;100765.59;1720187;83;21035;-59
2022/06/03 02:07:42;;;;;;;11.63;8.28;;;;;;;16.37;89.33;100764.75;1756251;82;21084;-59
2022/06/03 02:10:41;;;;;;;12.63;8.23;;;;;;;16.37;88.69;100768.90;1720296;83;21077;-59
2022/06/03 02:13:35;;;;;;;10.03;8.28;;;;;;;16.34;88.79;100765.20;1756744;82;21047;-58
2022/06/03 02:16:36;;;;;;;11.70;8.63;;;;;;;16.31;88.96;100758.20;1720091;83;21063;-59
2022/06/03 02:19:25;;;;;;;9.15;8.20;;;;;;;16.33;89.16;100762.98;1756476;81;21046;-61
2022/06/03 02:22:28;;;;;;;12.23;8.53;;;;;;;16.34;88.72;100762.44;1756440;81;21058;-61
2022/06/03 02:25:30;;;;;;;9.15;7.58;;;;;;;16.34;88.34;100763.82;1756417;81;21026;-59
2022/06/03 02:28:17;;;;;;;8.45;7.47;;;;;;;16.29;88.39;100765.88;1720441;83;21003;-59
2022/06/03 02:31:26;;;;;;;10.48;7.40;;;;;;;16.29;88.65;100763.66;1716469;82;21106;-59
2022/06/03 02:34:10;;;;;;;10.65;7.37;;;;;;;16.29;88.53;100759.51;1756360;81;21042;-60
2022/06/03 02:37:17;;;;;;;8.58;6.92;;;;;;;16.30;88.50;100771.72;1755754;81;21003;-59
2022/06/03 02:39:57;;;;;;;8.50;7.22;;;;;;;16.31;88.27;100781.72;1712402;82;21074;-59
2022/06/03 02:42:59;;;;;;;7.85;6.45;;;;;;;16.25;87.18;100781.73;1720017;83;21082;-69
2022/06/03 02:45:51;;;;;;;11.85;6.53;;;;;;;16.24;86.80;100786.42;1755499;81;21070;-59
2022/06/03 02:48:54;;;;;;;8.00;6.30;;;;;;;16.22;86.19;100785.80;1756204;81;21028;-60
2022/06/03 02:51:46;;;;;;;9.33;6.40;;;;;;;16.18;86.05;100788.17;1719980;83;21075;-59
2022/06/03 02:54:46;;;;;;;8.45;6.53;;;;;;;16.21;86.80;100795.70;1756341;81;21022;-59
2022/06/03 02:57:51;;;;;;;6.97;6.03;;;;;;;16.24;86.96;100800.78;1720310;83;21059;-60
2022/06/03 03:00:31;;;;;;;6.58;5.65;;;;;;;16.23;86.69;100804.08;1756422;81;21034;-61
2022/06/03 03:03:31;;;;;;;6.35;5.47;;;;;;;16.20;86.04;100811.45;1756406;82;21023;-61
2022/06/03 03:06:26;;;;;;;7.17;5.50;;;;;;;16.22;86.06;100808.45;1755294;82;21505;-60
2022/06/03 03:09:15;;;;;;;7.45;5.50;;;;;;;16.19;85.65;100812.52;1720184;83;21086;-59
2022/06/03 03:12:10;;;;;;;6.62;5.60;;;;;;;16.16;85.25;100817.96;1756211;81;21031;-60
2022/06/03 03:15:22;;;;;;;7.55;5.50;;;;;;;16.11;84.11;100828.84;1753227;81;21507;-60
2022/06/03 03:18:18;;;;;;;7.47;5.45;;;;;;;16.06;84.38;100831.44;1720133;83;21014;-59
2022/06/03 03:21:04;;;;;;;7.08;5.70;;;;;;;16.05;84.98;100825.59;1756366;81;21102;-60
2022/06/03 03:24:18;;;;;;;6.20;5.60;;;;;;;16.10;85.60;100834.06;1720385;83;21078;-59
2022/06/03 03:26:57;;;;;;;7.75;5.78;;;;;;;16.11;85.07;100836.29;1756124;81;21054;-60
2022/06/03 03:29:49;;;;;;;7.90;5.37;;;;;;;16.12;85.09;100837.98;1720231;83;21042;-60
2022/06/03 03:33:06;;;;;;;6.37;5.20;;;;;;;16.08;84.46;100838.97;1756544;82;21062;-59
2022/06/03 03:36:07;;;;;;;6.08;5.20;;;;;;;16.09;85.12;100839.81;1756425;81;21078;-60
2022/06/03 03:38:48;;;;;;;7.40;5.53;;;;;;;16.11;84.75;100841.82;1756275;81;21082;-60
2022/06/03 03:41:46;;;;;;;6.50;5.35;;;;;;;16.07;84.01;100853.86;1720148;83;21039;-60
2022/06/03 03:45:06;;;;;;;8.85;5.35;;;;;;;16.04;83.87;100852.92;1756307;82;20987;-61
2022/06/03 03:48:09;;;;;;;6.90;5.28;;;;;;;16.03;83.15;100858.67;1720325;83;21036;-61
2022/06/03 03:51:19;;;;;;;8.05;5.25;;;;;;;16.00;82.59;100866.03;1756173;82;21018;-61
2022/06/03 03:54:21;;;;;;;5.65;4.60;;;;;;;15.96;82.63;100873.92;1730511;81;21034;-60
2022/06/03 03:57:22;;;;;;;11.10;5.17;;;;;;;15.93;82.03;100876.28;1756048;81;21027;-59
2022/06/03 04:00:34;;;;;;;6.15;4.90;;;;;;;15.87;81.99;100894.59;1755801;82;21066;-61
2022/06/03 04:03:42;;;;;;;6.65;4.83;;;;;;;15.81;80.77;100896.32;1756349;81;20990;-60
2022/06/03 04:06:26;;;;;;;6.67;4.75;;;;;;;15.80;81.55;100902.06;1720144;83;20995;-62
2022/06/03 04:09:33;;;;;;;6.97;4.72;;;;;;;15.82;81.27;100903.55;1756678;82;21026;-60
2022/06/03 04:12:26;;;;;;;5.95;4.67;;;;;;;15.83;81.23;100903.01;1720300;83;21043;-60
2022/06/03 04:15:19;;;;;;;7.53;4.80;;;;;;;15.83;81.21;100901.63;1756306;82;21042;-60
2022/06/03 04:18:32;;;;;;;6.50;4.62;;;;;;;15.88;81.92;100905.95;1720154;83;21427;-60
2022/06/03 04:21:39;;;;;;;6.92;4.47;;;;;;;15.95;81.86;100909.54;1756092;81;21130;-60
2022/06/03 04:24:42;;;;;;;5.90;4.60;;;;;;;15.91;81.38;100912.43;1755779;81;21027;-60
2022/06/03 04:27:23;;;;;;;5.30;4.50;;;;;;;15.86;80.57;100913.62;1720376;83;21027;-60
2022/06/03 04:30:24;;;;;;;6.55;4.00;;;;;;;15.85;80.79;100909.16;1756546;82;21494;-60
2022/06/03 04:33:28;;;;;;;5.65;4.12;;;;;;;15.86;80.08;100910.86;1720053;83;21443;-61
2022/06/03 04:36:36;;;;;;;6.72;4.30;;;;;;;15.88;80.23;100916.16;1756452;81;21054;-61
2022/06/03 04:39:25;;;;;;;6.50;4.20;;;;;;;15.91;80.61;100924.02;1722222;82;21127;-60
2022/06/03 04:42:25;;;;;;;6.67;4.37;;;;;;;15.97;80.58;100923.98;1693529;84;21057;-60
2022/06/03 04:45:40;;;;;;;5.22;3.87;;;;;;;16.05;79.82;100921.50;1702280;84;21024;-61
2022/06/03 04:48:32;;;;;;;5.65;4.00;;;;;;;16.15;79.26;100925.48;1705633;84;21099;-60
2022/06/03 04:51:38;;;;;;;3.65;3.33;;;;;;;16.26;78.54;100933.63;1704842;84;21004;-60
2022/06/03 04:54:31;;;;;;;4.95;3.30;;;;;;;16.30;77.75;100943.18;1757120;82;21030;-60
2022/06/03 04:57:28;;;;;;;4.67;3.10;;;;;;;16.28;77.13;100948.63;1723737;83;21033;-60
2022/06/03 05:00:05;;;;;;;6.17;3.45;;;;;;;16.32;76.90;100942.95;1693506;85;21025;-59
2022/06/03 05:02:57;;;;;;;;;;;;;;;16.46;77.02;100954.25;1694937;85;21096;-59
2022/06/03 05:06:20;;;;;;;3.15;2.85;;;;;;;16.63;76.44;100955.41;1705806;84;20150;-60
2022/06/03 05:09:33;;;;;;;6.90;2.70;;;;;;;16.82;74.33;100955.51;1757006;82;20995;-60
2022/06/03 05:12:52;;;;;;;3.50;2.83;;;;;;;17.01;72.72;100965.59;1724002;83;21406;-60
2022/06/03 05:15:45;;;;;;;2.70;2.17;;;;;;;17.27;69.56;100962.58;1705891;84;21035;-60
2022/06/03 05:18:47;;;;;;;4.30;2.40;;;;;;;17.63;68.34;100965.96;1757062;82;21058;-60
2022/06/03 05:21:34;;;;;;;2.62;2.20;;;;;;;17.89;67.93;100962.59;1754031;82;21042;-60
2022/06/03 05:24:31;;;;;;;2.45;2.25;;;;;;;18.27;66.92;100960.95;1757097;81;21131;-60
2022/06/03 05:27:34;;;;;;;3.65;2.27;;;;;;;18.50;62.63;100964.36;1722815;82;21004;-60
2022/06/03 05:30:45;;;;;;;2.90;2.17;;;;;;;18.66;62.83;100978.44;1693432;85;21099;-60
2022/06/03 05:33:59;;;;;;;6.80;2.37;;;;;;;18.91;62.51;100975.52;1723464;83;21275;-60
2022/06/03 05:37:13;;;;;;;2.40;1.95;;;;;;;19.26;61.03;100984.43;1723811;83;21092;-60
2022/06/03 05:39:58;;;;;;;5.95;2.30;;;;;;;19.59;60.63;100982.49;1721031;83;21070;-60
2022/06/03 05:43:05;;;;;;;6.03;1.82;;;;;;;19.86;58.86;101000.34;1756205;82;21426;-64
2022/06/03 05:45:43;;;;;;;3.22;2.00;;;;;;;19.97;57.57;100992.23;1720279;83;21031;-60
2022/06/03 05:48:34;;;;;;;4.15;2.00;;;;;;;20.19;56.64;100993.28;1755998;82;21067;-60
2022/06/03 05:51:15;;;;;;;3.70;2.25;;;;;;;20.46;56.12;101006.95;1756345;82;21058;-59
2022/06/03 05:54:21;;;;;;;4.50;2.60;;;;;;;20.70;55.70;101008.23;1700842;83;21010;-58
2022/06/03 05:57:16;;;;;;;6.40;2.80;;;;;;;20.79;53.90;101003.95;1727042;82;21054;-60
2022/06/03 06:00:12;;;;;;;3.30;2.47;;;;;;;20.95;54.41;101007.88;1756156;81;21455;-59
2022/06/03 06:03:07;;;;;;;7.78;2.50;;;;;;;21.16;50.59;101013.55;1756121;81;20991;-61
2022/06/03 06:06:02;;;;;;;3.60;2.02;;;;;;;21.16;52.18;101009.38;1756339;81;21134;-61
2022/06/03 06:08:50;;;;;;;5.95;2.30;;;;;;;21.39;51.54;101007.55;1756126;81;21101;-62
2022/06/03 06:11:52;;;;;;;4.53;2.30;;;;;;;21.51;49.64;101012.51;1719790;83;21082;-60
2022/06/03 06:14:35;;;;;;;2.95;2.00;;;;;;;21.56;49.83;101015.38;1756342;82;21046;-59
2022/06/03 06:17:23;;;;;;;4.87;2.02;;;;;;;21.75;48.96;101014.54;1751331;81;21027;-60
2022/06/03 06:20:00;;;;;;;2.85;2.08;;;;;;;21.99;49.34;101013.76;1719813;83;21019;-61
2022/06/03 06:22:30;;;;;;;2.62;1.87;;;;;;;22.23;46.79;101015.26;1755959;81;21043;-61
2022/06/03 06:25:14;;;;;;;2.77;2.08;;;;;;;22.32;46.28;101015.64;1756082;82;21046;-60
2022/06/03 06:28:04;;;;;;;4.62;1.72;;;;;;;22.40;45.32;101013.23;1719901;83;21086;-59
2022/06/03 06:30:59;;;;;;;3.55;1.82;;;;;;;22.57;45.30;101006.72;1756082;82;21105;-60
2022/06/03 06:33:58;;;;;;;2.10;1.70;;;;;;;22.89;45.32;101009.07;1678547;83;21099;-60
2022/06/03 06:36:43;;;;;;;3.17;2.10;;;;;;;23.19;43.85;101000.67;1755987;82;21544;-61
2022/06/03 06:39:24;;;;;;;4.75;1.70;;;;;;;23.25;41.91;101005.20;1658320;86;21494;-60
2022/06/03 06:42:26;;;;;;;2.10;1.60;;;;;;;23.26;41.80;100999.33;1647105;87;21495;-59
2022/06/03 06:45:18;;;;;;;2.70;1.45;;;;;;;23.31;41.88;100998.53;1609161;89;21032;-62
2022/06/03 06:48:03;;;;;;;2.30;1.50;;;;;;;23.37;41.90;101003.05;1609029;88;21520;-60
2022/06/03 06:50:49;;;;;;;3.85;2.58;;;;;;;23.50;42.04;101002.63;1609244;89;21089;-60
2022/06/03 06:53:33;;;;;;;7.42;1.98;;;;;;;23.61;42.17;101007.20;1609237;89;21113;-61
2022/06/03 06:56:17;;;;;;;3.25;1.90;;;;;;;23.77;42.34;101011.50;1609138;89;21068;-60
2022/06/03 06:58:59;;;;;;;3.25;1.72;;;;;;;23.83;41.29;101009.86;1741615;82;21947;-61
2022/06/03 07:01:45;;;;;;;7.50;2.12;;;;;;;23.77;41.72;101004.50;1701111;84;21541;-62
2022/06/03 07:04:19;;;;;;;1.72;1.57;;;;;;;23.85;41.46;101005.39;1693279;85;21059;-59
2022/06/03 07:07:16;;;;;;;3.20;1.82;;;;;;;23.90;42.13;101005.42;1688530;85;21068;-60
2022/06/03 07:09:58;;;;;;;7.20;1.90;;;;;;;24.04;41.75;101010.81;1656979;86;21555;-60
2022/06/03 07:12:41;;;;;;;7.25;2.70;;;;;;;24.34;41.79;101015.22;1657384;86;21087;-60
2022/06/03 07:15:26;;;;;;;7.00;2.52;;;;;;;24.47;41.67;101011.05;1654901;86;21099;-60
2022/06/03 07:21:18;;;;;;;2.50;1.60;;;;;;;24.74;41.14;101022.09;1711464;84;21071;-60
2022/06/03 07:23:51;;;;;;;3.12;1.95;;;;;;;24.71;40.36;101010.56;1711076;84;21029;-61
2022/06/03 07:26:38;;;;;;;1.70;1.60;;;;;;;24.75;40.67;101018.16;1711424;84;21049;-60
2022/06/03 07:29:23;;;;;;;1.55;1.45;;;;;;;24.78;40.50;101021.81;1741254;82;21455;-60
2022/06/03 07:32:08;;;;;;;7.30;2.60;;;;;;;25.04;39.86;101021.89;1694263;84;21064;-60
2022/06/03 07:34:54;;;;;;;4.85;1.95;;;;;;;25.27;39.14;101031.16;1692960;85;20977;-60
2022/06/03 07:37:27;;;;;;;2.05;1.45;;;;;;;25.07;39.58;101017.13;1694130;85;21044;-59
2022/06/03 07:40:38;;;;;;;1.67;1.57;;;;;;;25.09;39.05;101016.28;1707994;83;21019;-61
2022/06/03 07:43:24;;;;;;;2.10;1.50;;;;;;;25.20;39.43;101014.61;1734468;82;21529;-61
2022/06/03 07:46:22;;;;;;;3.92;1.77;;;;;;;25.15;39.29;101010.39;1754994;80;21097;-60
2022/06/03 07:48:52;;;;;;;1.72;1.62;;;;;;;25.20;39.26;101009.55;1720327;83;21042;-59
2022/06/03 07:51:34;;;;;;;3.37;1.77;;;;;;;25.16;39.39;101005.63;1756388;81;21048;-61
2022/06/03 07:54:17;;;;;;;2.47;1.82;;;;;;;25.31;39.60;101011.80;1758206;81;21022;-62
2022/06/03 07:56:46;;;;;;;2.87;2.10;;;;;;;25.47;39.65;101012.10;1758641;80;21082;-60
2022/06/03 07:59:20;;;;;;;7.30;2.10;;;;;;;25.68;39.44;101000.31;1768469;80;21001;-61
2022/06/03 08:02:05;;;;;;;2.37;1.70;;;;;;;25.82;39.14;101015.44;1788097;80;21013;-60
2022/06/03 08:04:37;;;;;;;1.80;1.67;;;;;;;25.86;38.84;101011.78;1770597;80;21050;-61
2022/06/03 08:12:59;;;;;;;3.83;1.70;;;;;;;25.81;38.13;101022.18;1718615;82;21081;-64
2022/06/03 08:15:36;;;;;;;1.90;1.70;;;;;;;25.85;37.46;101022.73;1737732;82;21035;-62
2022/06/03 08:18:07;;;;;;;2.15;1.60;;;;;;;25.85;37.46;101022.73;1755664;82;21015;-61
2022/06/03 08:20:40;;;;;;;2.77;1.90;;;;;;;25.90;38.07;101020.47;1755398;82;21735;-62
2022/06/03 08:23:09;;;;;;;2.87;1.60;;;;;;;25.83;38.29;101019.93;1756193;82;20983;-62
2022/06/03 08:25:42;;;;;;;4.40;1.60;;;;;;;25.76;38.10;101023.03;1756022;82;21486;-61
2022/06/03 08:28:14;;;;;;;4.58;1.75;;;;;;;25.79;38.13;101018.81;1756074;82;21042;-61
2022/06/03 08:30:45;;;;;;;4.28;1.57;;;;;;;25.80;37.77;101013.48;1785120;80;21013;-60
2022/06/03 08:33:15;;;;;;;3.55;1.80;;;;;;;25.86;37.61;101023.58;1760891;80;21072;-62
2022/06/03 08:35:47;;;;;;;2.40;1.50;;;;;;;25.83;37.70;101022.73;1788756;80;21041;-61
2022/06/03 08:38:24;;;;;;;4.55;2.00;;;;;;;25.97;37.51;101025.23;1788384;80;21485;-62
2022/06/03 08:41:07;;;;;;;2.87;1.57;;;;;;;26.15;37.06;101033.06;1788431;79;21044;-63
2022/06/03 08:43:55;;;;;;;4.17;1.95;;;;;;;26.14;36.73;101019.30;1788360;80;21503;-62
2022/06/03 08:46:28;;;;;;;2.90;1.70;;;;;;;26.20;36.88;101034.45;1788924;80;21005;-62
2022/06/03 08:49:05;;;;;;;2.92;1.70;;;;;;;26.37;36.34;101029.08;1788655;80;21045;-65
2022/06/03 08:51:45;;;;;;;2.33;1.77;;;;;;;26.20;36.10;101035.86;1752408;80;21540;-63
2022/06/03 08:54:30;;;;;;;1.45;1.35;;;;;;;26.13;36.79;101032.52;1748657;82;21111;-62
2022/06/03 08:57:04;;;;;;;3.95;2.08;;;;;;;26.23;36.26;101038.09;1745093;82;21423;-60
2022/06/03 09:00:02;;;;;;;4.72;1.82;;;;;;;26.23;35.78;101047.93;1753452;81;21001;-61
2022/06/03 09:02:38;;;;;;;;;;;;;;;26.08;35.99;101036.74;1767269;80;21045;-58
2022/06/03 09:05:25;;;;;;;4.35;1.82;;;;;;;26.04;36.13;101042.66;1765393;81;20442;-59
2022/06/03 09:08:05;;;;;;;3.08;1.57;;;;;;;25.96;35.13;101041.80;1754479;81;21045;-59
2022/06/03 09:10:43;;;;;;;2.45;1.52;;;;;;;25.88;35.78;101052.21;1740022;81;21026;-62
2022/06/03 09:13:34;;;;;;;4.47;1.60;;;;;;;25.75;36.40;101055.61;1765458;81;20986;-59
2022/06/03 09:16:04;;;;;;;2.33;1.40;;;;;;;25.66;36.07;101042.70;1765122;81;21030;-59
2022/06/03 09:18:37;;;;;;;3.12;1.60;;;;;;;25.59;36.01;101056.15;1765224;81;21014;-58
2022/06/03 09:21:24;;;;;;;4.83;1.52;;;;;;;25.46;35.78;101049.70;1764708;81;22039;-58
2022/06/03 09:23:58;;;;;;;2.58;1.27;;;;;;;25.29;35.80;101055.00;1765422;81;21446;-59
2022/06/03 09:26:34;;;;;;;1.65;1.50;;;;;;;25.09;36.46;101056.95;1765036;81;21065;-60
2022/06/03 09:29:05;;;;;;;2.05;1.60;;;;;;;24.98;36.11;101062.25;1765483;81;20981;-59
2022/06/03 09:31:37;;;;;;;2.50;1.50;;;;;;;24.71;36.03;101052.07;1765494;81;21447;-59
2022/06/03 09:34:07;;;;;;;1.65;1.40;;;;;;;24.45;36.70;101054.47;1761312;81;21097;-60
2022/06/03 09:36:37;;;;;;;2.08;1.50;;;;;;;24.27;36.87;101055.23;1759094;81;21123;-59
2022/06/03 09:39:10;;;;;;;1.60;1.32;;;;;;;24.16;37.66;101068.88;1759162;81;21064;-59
2022/06/03 09:41:43;;;;;;;3.02;1.47;;;;;;;24.10;37.33;101055.95;1755980;81;21446;-58
2022/06/03 09:44:14;;;;;;;2.05;1.57;;;;;;;24.05;37.57;101058.70;1756078;82;21464;-58
2022/06/03 09:46:43;;;;;;;2.00;1.60;;;;;;;24.03;37.74;101054.77;1756441;81;21005;-59
2022/06/03 09:49:12;;;;;;;3.12;1.70;;;;;;;24.02;38.30;101062.88;1727111;82;21081;-60
2022/06/03 09:51:56;;;;;;;1.65;1.55;;;;;;;24.05;38.12;101061.50;1756274;82;21033;-59
2022/06/03 09:54:39;;;;;;;1.52;1.42;;;;;;;24.02;37.38;101059.23;1755966;82;21001;-59
2022/06/03 09:57:16;;;;;;;2.87;1.52;;;;;;;23.86;37.57;101058.86;1756111;81;21010;-59
2022/06/03 10:00:08;;;;;;;2.85;1.47;;;;;;;23.76;37.87;101059.64;1757538;81;21049;-61
2022/06/03 10:02:43;;;;;;;1.60;1.37;;;;;;;23.75;37.88;101050.11;1746264;80;21038;-59
2022/06/03 10:05:16;;;;;;;1.77;1.50;;;;;;;23.71;37.54;101054.84;1777903;81;21003;-59
2022/06/03 10:07:45;;;;;;;3.33;1.50;;;;;;;23.68;37.87;101056.78;1777956;80;21015;-60
2022/06/03 10:13:06;;;;;;;5.75;2.02;;;;;;;23.81;37.59;101060.23;1777597;81;21419;-59
2022/06/03 10:16:03;;;;;;;1.75;1.40;;;;;;;23.84;37.34;101066.69;1750888;81;21570;-58
2022/06/03 10:18:52;;;;;;;1.50;1.40;;;;;;;23.84;36.87;101051.29;1777762;80;21011;-60
2022/06/03 10:21:26;;;;;;;4.92;1.52;;;;;;;23.82;36.15;101057.71;1777360;81;20975;-60
2022/06/03 10:24:02;;;;;;;1.30;1.20;;;;;;;23.78;35.71;101060.20;1777772;81;21050;-60
2022/06/03 10:26:43;;;;;;;1.70;1.32;;;;;;;23.78;35.91;101059.36;1777541;81;21042;-60
2022/06/03 10:29:17;;;;;;;1.70;1.25;;;;;;;23.69;35.91;101064.63;1778046;81;21114;-60
2022/06/03 10:31:55;;;;;;;2.42;1.32;;;;;;;23.63;36.28;101060.10;1777525;80;21082;-59
2022/06/03 10:34:38;;;;;;;2.35;1.22;;;;;;;23.54;35.92;101055.53;1777572;81;21458;-59
2022/06/03 10:37:11;;;;;;;2.22;1.20;;;;;;;23.43;36.28;101052.36;1777879;80;21851;-59
2022/06/03 10:39:42;;;;;;;3.50;1.50;;;;;;;23.36;36.51;101044.16;1777696;80;21030;-60
2022/06/03 10:42:17;;;;;;;2.72;1.50;;;;;;;23.33;36.77;101044.70;1777635;81;21003;-60
2022/06/03 10:44:50;;;;;;;2.15;1.15;;;;;;;23.33;37.42;101054.48;1777513;81;21011;-59
2022/06/03 10:47:23;;;;;;;2.15;1.30;;;;;;;23.33;35.25;101052.24;1777506;80;21450;-60
2022/06/03 10:49:54;;;;;;;2.30;1.30;;;;;;;23.30;35.95;101044.39;1777601;81;21019;-59
2022/06/03 11:01:34;;;;;;;1.57;1.30;;;;;;;23.23;36.98;101040.97;1758199;80;21153;-60
2022/06/03 11:04:03;;;;;;;3.92;1.30;;;;;;;23.20;37.67;101054.08;1759400;81;21453;-60
2022/06/03 11:06:36;;;;;;;1.92;1.60;;;;;;;23.21;35.70;101051.58;1761982;81;21046;-58
2022/06/03 11:09:07;;;;;;;2.75;1.42;;;;;;;23.15;35.03;101046.49;1762020;81;21022;-59
2022/06/03 11:11:53;;;;;;;2.58;1.65;;;;;;;23.11;35.61;101045.34;1761896;81;21078;-59
2022/06/03 11:14:35;;;;;;;1.20;1.10;;;;;;;23.07;35.71;101044.18;1761922;81;21041;-59
2022/06/03 11:17:13;;;;;;;1.20;1.10;;;;;;;22.98;35.96;101048.56;1762103;81;21045;-59
2022/06/03 11:19:47;;;;;;;4.35;1.12;;;;;;;22.95;36.23;101058.32;1761917;80;20982;-60
2022/06/03 11:22:27;;;;;;;2.27;1.15;;;;;;;22.94;36.55;101037.06;1761951;81;21026;-58
2022/06/03 11:25:12;;;;;;;3.20;1.55;;;;;;;22.96;36.57;101041.00;1761813;81;21517;-60
2022/06/03 11:27:53;;;;;;;4.72;1.60;;;;;;;22.97;37.23;101039.34;1762119;81;21041;-59
2022/06/03 11:30:31;;;;;;;1.85;1.27;;;;;;;23.03;36.67;101032.69;1762027;80;21510;-59
2022/06/03 11:33:08;;;;;;;1.22;1.10;;;;;;;23.12;36.37;101041.98;1761733;81;21065;-59
2022/06/03 11:35:44;;;;;;;2.45;1.30;;;;;;;23.18;36.20;101032.53;1761999;81;21439;-59
2022/06/03 11:38:29;;;;;;;2.67;1.60;;;;;;;23.21;36.51;101032.00;1762047;81;21014;-63
2022/06/03 11:41:05;;;;;;;1.90;1.40;;;;;;;23.26;37.18;101032.89;1757632;81;21435;-63
2022/06/03 11:43:51;;;;;;;2.45;1.42;;;;;;;23.27;36.20;101028.98;1752353;82;21030;-57
2022/06/03 11:46:26;;;;;;;2.37;1.55;;;;;;;23.16;36.58;101029.16;1712968;84;21106;-61
2022/06/03 11:48:57;;;;;;;2.30;1.40;;;;;;;23.15;36.44;101027.48;1714074;83;21042;-60
2022/06/03 11:51:27;;;;;;;2.12;1.37;;;;;;;23.21;36.37;101026.41;1713825;84;21030;-58
2022/06/03 11:53:56;;;;;;;2.40;1.32;;;;;;;23.27;36.86;101021.16;1693570;85;21055;-58
2022/06/03 11:56:27;;;;;;;5.50;1.37;;;;;;;23.31;36.84;101027.89;1690042;84;21034;-58
2022/06/03 11:59:07;;;;;;;2.65;2.02;;;;;;;23.35;36.56;101023.45;1713896;84;21038;-59
2022/06/03 12:01:53;;;;;;;2.02;1.37;;;;;;;23.35;36.58;101015.06;1693659;85;21059;-60
2022/06/03 12:04:32;;;;;;;5.00;1.30;;;;;;;23.31;36.15;101010.56;1714086;84;21022;-59
2022/06/03 12:07:33;;;;;;;1.52;1.30;;;;;;;23.27;36.40;101014.16;1714010;83;21050;-59
2022/06/03 12:10:50;;;;;;;1.60;1.20;;;;;;;23.25;36.13;101009.39;1714146;82;21038;-59
2022/06/03 12:13:29;;;;;;;8.33;1.95;;;;;;;23.09;36.07;101009.81;1655571;86;21069;-60
2022/06/03 12:16:10;;;;;;;4.60;1.75;;;;;;;22.98;35.92;101001.05;1691415;83;21061;-60
2022/06/03 12:19:02;;;;;;;1.65;1.20;;;;;;;22.90;36.33;100999.58;1655478;87;21053;-60
2022/06/03 12:21:38;;;;;;;1.50;1.30;;;;;;;22.87;35.98;101010.45;1691406;83;21080;-59
2022/06/03 12:24:20;;;;;;;2.87;1.50;;;;;;;22.87;36.07;100998.71;1655789;87;21037;-60
2022/06/03 12:26:49;;;;;;;2.25;1.60;;;;;;;22.92;36.50;101005.75;1691328;85;21032;-62
2022/06/03 12:29:30;;;;;;;5.78;1.90;;;;;;;22.96;36.56;100999.91;1655450;85;21048;-59
2022/06/03 12:32:13;;;;;;;2.62;1.55;;;;;;;22.97;36.82;101000.20;1695286;84;21434;-60
2022/06/03 12:34:42;;;;;;;2.02;1.30;;;;;;;23.01;36.77;101008.90;1693295;85;21064;-61
2022/06/03 12:37:28;;;;;;;3.33;1.60;;;;;;;23.04;36.71;100995.23;1714152;84;21073;-61
2022/06/03 12:40:03;;;;;;;4.22;1.80;;;;;;;23.08;36.96;100992.75;1713956;83;21007;-61
2022/06/03 12:42:40;;;;;;;8.03;2.00;;;;;;;23.14;36.88;100990.84;1684418;83;21423;-62
2022/06/03 12:45:24;;;;;;;2.55;1.20;;;;;;;23.18;36.94;100988.64;1693446;84;21026;-61
2022/06/03 12:47:55;;;;;;;3.25;1.50;;;;;;;23.18;36.24;100981.66;1693711;83;21523;-63
2022/06/03 12:50:34;;;;;;;2.40;1.12;;;;;;;23.12;36.96;100993.91;1693675;84;21030;-61
2022/06/03 12:53:13;;;;;;;4.17;1.60;;;;;;;23.14;36.76;100988.05;1693628;84;21006;-62
2022/06/03 12:55:44;;;;;;;5.20;1.50;;;;;;;23.18;37.08;100990.59;1689530;85;21037;-60
2022/06/03 12:58:37;;;;;;;1.35;1.25;;;;;;;23.24;36.75;100991.77;1694005;85;21092;-61
2022/06/03 13:01:06;;;;;;;2.42;1.42;;;;;;;23.25;36.78;100989.81;1694002;84;21095;-61
2022/06/03 13:03:40;;;;;;;1.27;1.17;;;;;;;23.22;37.25;100988.39;1681992;84;21098;-62
2022/06/03 13:06:09;;;;;;;3.27;1.40;;;;;;;23.22;36.49;100986.16;1664381;86;21056;-60
2022/06/03 13:11:33;;;;;;;2.42;1.55;;;;;;;23.17;37.65;100981.92;1664245;86;21032;-59
2022/06/03 13:14:18;;;;;;;3.25;1.40;;;;;;;23.18;36.63;100978.86;1671567;85;21448;-61
2022/06/03 13:16:48;;;;;;;2.15;1.25;;;;;;;23.15;36.31;100977.16;1663414;86;21513;-61
2022/06/03 13:19:25;;;;;;;2.27;1.50;;;;;;;23.08;36.42;100978.77;1671454;85;21090;-61
2022/06/03 13:22:10;;;;;;;2.75;1.47;;;;;;;23.02;37.07;100980.69;1664332;86;21513;-61